Time;durP1;ratioP1;P1;durP2;ratioP2;P2;SDS_P1;SDS_P2;PMS_P1;PMS_P2;Temp;Humidity;BMP_temperature;BMP_pressure;BME280_temperature;BME280_humidity;BME280_pressure;Samples;Min_cycle;Max_cycle;Signal;HPM_P1;HPM_P2
2021/12/07 00:01:12;;;;;;;1.40;0.53;;;;;;;;;;4989371;28;20232;-72
2021/12/07 00:03:40;;;;;;;0.10;0.10;;;;;;;;;;4991251;28;20205;-72
2021/12/07 00:06:08;;;;;;;0.47;0.20;;;;;;;;;;4990257;28;20239;-71
2021/12/07 00:08:36;;;;;;;0.43;0.37;;;;;;;;;;4984655;28;20276;-72
2021/12/07 00:11:03;;;;;;;0.00;0.00;;;;;;;;;;4986462;28;20206;-71
2021/12/07 00:13:36;;;;;;;0.37;0.27;;;;;;;;;;4990486;28;20221;-71
2021/12/07 00:16:05;;;;;;;0.00;0.00;;;;;;;;;;4991469;28;20213;-70
2021/12/07 00:18:32;;;;;;;0.00;0.00;;;;;;;;;;4990407;28;20212;-71
2021/12/07 00:21:00;;;;;;;0.47;0.47;;;;;;;;;;4988239;28;20288;-71
2021/12/07 00:23:27;;;;;;;0.53;0.23;;;;;;;;;;4988031;28;20217;-71
2021/12/07 00:25:57;;;;;;;0.13;0.13;;;;;;;;;;4990365;28;20229;-71
2021/12/07 00:28:24;;;;;;;0.00;0.00;;;;;;;;;;4989734;28;20201;-71
2021/12/07 00:30:52;;;;;;;0.00;0.00;;;;;;;;;;4989245;28;20210;-71
2021/12/07 00:33:36;;;;;;;2.30;0.57;;;;;;;;;;4990061;28;20252;-71
2021/12/07 00:36:04;;;;;;;0.10;0.10;;;;;;;;;;4990791;28;20285;-71
2021/12/07 00:38:31;;;;;;;2.70;0.33;;;;;;;;;;4991073;28;20202;-72
2021/12/07 00:41:01;;;;;;;1.00;0.73;;;;;;;;;;4988767;28;20667;-71
2021/12/07 00:43:29;;;;;;;0.10;0.10;;;;;;;;;;4989268;28;20233;-71
2021/12/07 00:45:58;;;;;;;0.13;0.13;;;;;;;;;;4989256;28;20252;-72
2021/12/07 00:48:27;;;;;;;1.17;0.33;;;;;;;;;;4989780;28;20205;-71
2021/12/07 00:50:56;;;;;;;0.10;0.10;;;;;;;;;;4988367;28;20238;-71
2021/12/07 00:53:24;;;;;;;0.00;0.00;;;;;;;;;;4988612;28;20256;-71
2021/12/07 00:55:53;;;;;;;0.47;0.47;;;;;;;;;;4990013;28;20221;-70
2021/12/07 00:58:23;;;;;;;3.00;0.87;;;;;;;;;;4987704;28;20232;-71
2021/12/07 01:00:52;;;;;;;0.50;0.30;;;;;;;;;;4989215;28;20213;-70
2021/12/07 01:03:20;;;;;;;0.10;0.10;;;;;;;;;;4989570;28;20209;-71
2021/12/07 01:05:51;;;;;;;0.00;0.00;;;;;;;;;;4988314;28;20233;-71
2021/12/07 01:08:48;;;;;;;0.57;0.57;;;;;;;;;;4989707;28;20209;-71
2021/12/07 01:25:15;;;;;;;0.00;0.00;;;;;;;;;;4993545;28;20220;-71
2021/12/07 01:27:44;;;;;;;0.00;0.00;;;;;;;;;;4992228;28;20204;-69
2021/12/07 01:30:18;;;;;;;0.00;0.00;;;;;;;;;;4992365;28;20292;-71
2021/12/07 01:33:06;;;;;;;0.10;0.10;;;;;;;;;;4993494;28;20608;-70
2021/12/07 01:35:49;;;;;;;0.00;0.00;;;;;;;;;;4993322;28;20579;-70
2021/12/07 01:38:30;;;;;;;0.10;0.10;;;;;;;;;;4993331;28;20633;-70
2021/12/07 01:41:12;;;;;;;0.00;0.00;;;;;;;;;;4991040;28;20209;-70
2021/12/07 01:44:16;;;;;;;0.00;0.00;;;;;;;;;;4992622;28;20229;-70
2021/12/07 01:46:56;;;;;;;0.00;0.00;;;;;;;;;;4993615;28;20259;-70
2021/12/07 01:59:32;;;;;;;0.00;0.00;;;;;;;;;;4984219;28;20209;-70
2021/12/07 02:01:03;;;;;;;3.80;1.07;;;;;;;;;;4990235;28;20690;-70
2021/12/07 02:03:30;;;;;;;0.00;0.00;;;;;;;;;;4993399;28;20205;-71
2021/12/07 02:05:57;;;;;;;0.20;0.10;;;;;;;;;;4993666;28;20556;-71
2021/12/07 02:08:25;;;;;;;0.00;0.00;;;;;;;;;;4992423;28;20687;-70
2021/12/07 02:10:58;;;;;;;0.00;0.00;;;;;;;;;;4992173;28;20592;-70
2021/12/07 02:16:07;;;;;;;0.10;0.10;;;;;;;;;;4993163;28;20209;-70
2021/12/07 02:18:34;;;;;;;0.00;0.00;;;;;;;;;;4991474;28;20209;-72
2021/12/07 02:21:15;;;;;;;0.53;0.07;;;;;;;;;;4991786;28;20556;-72
2021/12/07 02:23:42;;;;;;;0.00;0.00;;;;;;;;;;4992720;28;20201;-72
2021/12/07 02:26:10;;;;;;;0.20;0.20;;;;;;;;;;4988020;28;20225;-72
2021/12/07 02:28:39;;;;;;;0.17;0.10;;;;;;;;;;4985570;28;20216;-72
2021/12/07 02:31:07;;;;;;;0.00;0.00;;;;;;;;;;4987977;28;20208;-71
2021/12/07 02:33:35;;;;;;;0.73;0.20;;;;;;;;;;4988595;28;20201;-71
2021/12/07 02:36:03;;;;;;;0.00;0.00;;;;;;;;;;4989338;28;20271;-71
2021/12/07 02:38:32;;;;;;;0.00;0.00;;;;;;;;;;4987967;28;20206;-70
2021/12/07 02:40:59;;;;;;;0.00;0.00;;;;;;;;;;4986923;28;20221;-70
2021/12/07 02:43:27;;;;;;;0.00;0.00;;;;;;;;;;4988118;28;20256;-70
2021/12/07 02:45:55;;;;;;;0.00;0.00;;;;;;;;;;4989625;28;20250;-71
2021/12/07 02:48:23;;;;;;;0.63;0.37;;;;;;;;;;4988445;28;20204;-70
2021/12/07 02:50:51;;;;;;;0.00;0.00;;;;;;;;;;4987591;28;20209;-70
2021/12/07 02:53:21;;;;;;;0.00;0.00;;;;;;;;;;4986837;28;20215;-70
2021/12/07 02:55:51;;;;;;;0.00;0.00;;;;;;;;;;4988352;28;20254;-71
2021/12/07 02:58:19;;;;;;;0.00;0.00;;;;;;;;;;4987509;28;20202;-71
2021/12/07 03:00:53;;;;;;;0.00;0.00;;;;;;;;;;4987751;28;20813;-71
2021/12/07 03:03:21;;;;;;;0.00;0.00;;;;;;;;;;4987867;28;20205;-71
2021/12/07 03:05:58;;;;;;;0.00;0.00;;;;;;;;;;4988427;28;20216;-71
2021/12/07 03:27:44;;;;;;;0.10;0.10;;;;;;;;;;4986864;28;20380;-70
2021/12/07 03:30:12;;;;;;;0.00;0.00;;;;;;;;;;4986747;28;20218;-70
2021/12/07 03:32:39;;;;;;;0.00;0.00;;;;;;;;;;4986593;28;20206;-71
2021/12/07 03:35:07;;;;;;;0.43;0.43;;;;;;;;;;4989161;28;20260;-71
2021/12/07 03:37:35;;;;;;;0.10;0.10;;;;;;;;;;4987155;28;20689;-70
2021/12/07 03:40:02;;;;;;;1.90;0.50;;;;;;;;;;4985789;28;20216;-71
2021/12/07 03:42:30;;;;;;;0.00;0.00;;;;;;;;;;4985541;28;20259;-71
2021/12/07 03:44:59;;;;;;;0.00;0.00;;;;;;;;;;4987715;28;20260;-70
2021/12/07 03:47:26;;;;;;;0.00;0.00;;;;;;;;;;4985772;28;20229;-71
2021/12/07 03:49:54;;;;;;;0.00;0.00;;;;;;;;;;4986578;28;20208;-70
2021/12/07 03:52:22;;;;;;;0.00;0.00;;;;;;;;;;4986908;28;20198;-71
2021/12/07 03:54:49;;;;;;;0.00;0.00;;;;;;;;;;4988490;28;20330;-70
2021/12/07 03:57:16;;;;;;;0.00;0.00;;;;;;;;;;4986012;28;20236;-70
2021/12/07 03:59:44;;;;;;;0.00;0.00;;;;;;;;;;4986851;28;20579;-70
2021/12/07 04:02:13;;;;;;;0.00;0.00;;;;;;;;;;4986856;28;20220;-70
2021/12/07 04:04:40;;;;;;;0.00;0.00;;;;;;;;;;4987314;28;20662;-70
2021/12/07 04:07:08;;;;;;;0.00;0.00;;;;;;;;;;4987164;28;20248;-71
2021/12/07 04:09:35;;;;;;;0.00;0.00;;;;;;;;;;4986986;28;20205;-70
2021/12/07 04:12:03;;;;;;;0.00;0.00;;;;;;;;;;4983364;28;20671;-71
2021/12/07 04:14:30;;;;;;;0.20;0.20;;;;;;;;;;4988199;28;20709;-71
2021/12/07 04:16:58;;;;;;;0.00;0.00;;;;;;;;;;4986133;28;20208;-72
2021/12/07 04:19:26;;;;;;;0.00;0.00;;;;;;;;;;4985890;28;20201;-71
2021/12/07 04:21:54;;;;;;;0.00;0.00;;;;;;;;;;4986402;28;20211;-71
2021/12/07 04:24:27;;;;;;;0.00;0.00;;;;;;;;;;4985902;28;20579;-71
2021/12/07 04:26:54;;;;;;;0.00;0.00;;;;;;;;;;4985297;28;20225;-71
2021/12/07 04:29:22;;;;;;;0.00;0.00;;;;;;;;;;4986060;28;20201;-71
2021/12/07 04:31:50;;;;;;;0.00;0.00;;;;;;;;;;4985905;28;20209;-70
2021/12/07 04:34:17;;;;;;;0.00;0.00;;;;;;;;;;4987486;28;20214;-70
2021/12/07 04:36:46;;;;;;;0.00;0.00;;;;;;;;;;4987579;28;20205;-71
2021/12/07 04:39:13;;;;;;;0.00;0.00;;;;;;;;;;4984863;28;20575;-71
2021/12/07 04:41:43;;;;;;;0.00;0.00;;;;;;;;;;4984806;28;20205;-71
2021/12/07 04:44:11;;;;;;;0.00;0.00;;;;;;;;;;4987384;28;20308;-72
2021/12/07 04:46:45;;;;;;;0.00;0.00;;;;;;;;;;4986056;28;20238;-71
2021/12/07 04:49:45;;;;;;;0.00;0.00;;;;;;;;;;4986417;28;20675;-71
2021/12/07 04:57:45;;;;;;;0.00;0.00;;;;;;;;;;4990510;28;20287;-71
2021/12/07 05:00:14;;;;;;;0.00;0.00;;;;;;;;;;4989291;28;20213;-71
2021/12/07 05:02:45;;;;;;;0.00;0.00;;;;;;;;;;4991853;28;20201;-71
2021/12/07 05:05:15;;;;;;;0.00;0.00;;;;;;;;;;4989028;28;20202;-71
2021/12/07 05:07:49;;;;;;;0.00;0.00;;;;;;;;;;4989890;28;20226;-71
2021/12/07 05:10:24;;;;;;;0.00;0.00;;;;;;;;;;4988306;28;20204;-71
2021/12/07 05:16:04;;;;;;;0.00;0.00;;;;;;;;;;4989088;28;20570;-71
2021/12/07 05:18:42;;;;;;;0.00;0.00;;;;;;;;;;4990813;28;20578;-70
2021/12/07 05:24:00;;;;;;;0.00;0.00;;;;;;;;;;4988863;28;20598;-71
2021/12/07 05:37:49;;;;;;;0.00;0.00;;;;;;;;;;4988280;28;20210;-72
2021/12/07 05:40:19;;;;;;;0.00;0.00;;;;;;;;;;4987128;28;21279;-71
2021/12/07 05:42:47;;;;;;;0.00;0.00;;;;;;;;;;4987392;28;20237;-71
2021/12/07 05:45:16;;;;;;;0.67;0.57;;;;;;;;;;4988206;28;20678;-71
2021/12/07 05:47:44;;;;;;;0.00;0.00;;;;;;;;;;4987223;28;20228;-71
2021/12/07 05:50:12;;;;;;;0.10;0.10;;;;;;;;;;4985561;28;20661;-71
2021/12/07 05:52:40;;;;;;;0.00;0.00;;;;;;;;;;4989377;28;20209;-71
2021/12/07 05:55:08;;;;;;;0.00;0.00;;;;;;;;;;4991059;28;20210;-71
2021/12/07 05:57:37;;;;;;;8.47;6.43;;;;;;;;;;4988540;28;20213;-72
2021/12/07 06:00:07;;;;;;;0.57;0.10;;;;;;;;;;4987953;28;20217;-72
2021/12/07 06:02:34;;;;;;;0.00;0.00;;;;;;;;;;4987770;28;20214;-71
2021/12/07 06:05:02;;;;;;;0.00;0.00;;;;;;;;;;4989970;28;20194;-72
2021/12/07 06:07:29;;;;;;;0.00;0.00;;;;;;;;;;4989530;28;20260;-71
2021/12/07 06:09:57;;;;;;;0.00;0.00;;;;;;;;;;4987971;28;20225;-72
2021/12/07 06:12:24;;;;;;;0.00;0.00;;;;;;;;;;4989074;28;20209;-72
2021/12/07 06:14:55;;;;;;;0.00;0.00;;;;;;;;;;4987828;28;20198;-71
2021/12/07 06:17:23;;;;;;;0.00;0.00;;;;;;;;;;4989000;28;20289;-72
2021/12/07 06:19:51;;;;;;;0.00;0.00;;;;;;;;;;4985524;28;20216;-72
2021/12/07 06:22:18;;;;;;;0.00;0.00;;;;;;;;;;4986785;28;20668;-71
2021/12/07 06:24:46;;;;;;;0.00;0.00;;;;;;;;;;4989665;28;20353;-71
2021/12/07 06:27:13;;;;;;;0.00;0.00;;;;;;;;;;4988108;28;20236;-71
2021/12/07 06:29:41;;;;;;;0.00;0.00;;;;;;;;;;4988794;28;20826;-71
2021/12/07 06:32:10;;;;;;;0.00;0.00;;;;;;;;;;4988615;28;20221;-71
2021/12/07 06:34:38;;;;;;;0.00;0.00;;;;;;;;;;4988163;28;20206;-71
2021/12/07 06:37:06;;;;;;;0.00;0.00;;;;;;;;;;4988406;28;20205;-71
2021/12/07 06:39:34;;;;;;;0.00;0.00;;;;;;;;;;4986778;28;20753;-71
2021/12/07 06:42:02;;;;;;;0.00;0.00;;;;;;;;;;4987887;28;20726;-71
2021/12/07 06:44:29;;;;;;;0.00;0.00;;;;;;;;;;4987923;28;20206;-71
2021/12/07 06:46:57;;;;;;;0.10;0.10;;;;;;;;;;4988444;28;20578;-71
2021/12/07 06:49:25;;;;;;;0.00;0.00;;;;;;;;;;4988690;28;20664;-71
2021/12/07 06:51:53;;;;;;;0.00;0.00;;;;;;;;;;4986527;28;20213;-70
2021/12/07 06:54:21;;;;;;;0.00;0.00;;;;;;;;;;4986494;28;20209;-70
2021/12/07 06:56:49;;;;;;;0.00;0.00;;;;;;;;;;4984429;28;20221;-71
2021/12/07 06:59:16;;;;;;;0.10;0.10;;;;;;;;;;4988535;28;20206;-71
2021/12/07 07:01:44;;;;;;;0.00;0.00;;;;;;;;;;4987818;28;20855;-71
2021/12/07 07:04:14;;;;;;;0.00;0.00;;;;;;;;;;4988945;28;20205;-71
2021/12/07 07:06:43;;;;;;;0.00;0.00;;;;;;;;;;4987490;28;20305;-71
2021/12/07 07:09:12;;;;;;;0.30;0.30;;;;;;;;;;4985894;28;20288;-71
2021/12/07 07:11:40;;;;;;;0.10;0.10;;;;;;;;;;4987988;28;20572;-71
2021/12/07 07:14:07;;;;;;;0.10;0.10;;;;;;;;;;4988737;28;20216;-71
2021/12/07 07:16:35;;;;;;;0.00;0.00;;;;;;;;;;4988512;28;20587;-71
2021/12/07 07:19:02;;;;;;;0.50;0.50;;;;;;;;;;4986701;28;20732;-71
2021/12/07 07:21:30;;;;;;;0.00;0.00;;;;;;;;;;4985498;28;20213;-71
2021/12/07 09:01:25;;;;;;;0.00;0.00;;;;;;;;;;5062552;28;20272;-74
2021/12/07 09:03:52;;;;;;;0.43;0.23;;;;;;;;;;5079378;28;20835;-73
2021/12/07 09:06:20;;;;;;;0.10;0.10;;;;;;;;;;5075948;28;20198;-73
2021/12/07 09:08:47;;;;;;;0.00;0.00;;;;;;;;;;5067581;28;20520;-73
2021/12/07 09:11:17;;;;;;;0.60;0.60;;;;;;;;;;5065993;28;21075;-73
2021/12/07 09:13:44;;;;;;;0.20;0.20;;;;;;;;;;5067617;28;20198;-72
2021/12/07 09:16:14;;;;;;;0.00;0.00;;;;;;;;;;5071088;28;20201;-72
2021/12/07 09:18:42;;;;;;;0.43;0.40;;;;;;;;;;5070142;28;20221;-73
2021/12/07 09:21:09;;;;;;;0.00;0.00;;;;;;;;;;5068059;28;20205;-72
2021/12/07 09:23:37;;;;;;;0.83;0.50;;;;;;;;;;5068009;28;20289;-76
2021/12/07 09:26:05;;;;;;;2.20;0.93;;;;;;;;;;5071050;28;20212;-69
2021/12/07 09:28:34;;;;;;;0.00;0.00;;;;;;;;;;5072168;28;20203;-71
2021/12/07 09:31:01;;;;;;;0.40;0.40;;;;;;;;;;5067729;28;20199;-71
2021/12/07 09:33:30;;;;;;;0.83;0.50;;;;;;;;;;5066767;28;20671;-71
2021/12/07 09:35:58;;;;;;;0.00;0.00;;;;;;;;;;5067186;28;20203;-69
2021/12/07 09:38:26;;;;;;;0.10;0.10;;;;;;;;;;5072691;28;20803;-70
2021/12/07 09:40:54;;;;;;;0.50;0.50;;;;;;;;;;5066871;28;20516;-71
2021/12/07 09:43:23;;;;;;;13.33;2.17;;;;;;;;;;5066589;28;20674;-71
2021/12/07 09:45:52;;;;;;;0.00;0.00;;;;;;;;;;5065970;28;20731;-71
2021/12/07 09:48:19;;;;;;;1.40;0.47;;;;;;;;;;5072216;28;20195;-70
2021/12/07 09:50:49;;;;;;;2.67;1.53;;;;;;;;;;5071948;28;20209;-72
2021/12/07 09:53:17;;;;;;;0.63;0.63;;;;;;;;;;5065358;28;20294;-70
2021/12/07 09:55:45;;;;;;;0.00;0.00;;;;;;;;;;5061800;28;20224;-71
2021/12/07 09:58:13;;;;;;;0.20;0.20;;;;;;;;;;5063569;28;20570;-71
2021/12/07 10:00:41;;;;;;;0.10;0.10;;;;;;;;;;5073327;28;20729;-70
2021/12/07 10:03:10;;;;;;;0.30;0.30;;;;;;;;;;5067700;28;20595;-70
2021/12/07 10:05:39;;;;;;;0.20;0.20;;;;;;;;;;5060267;28;20220;-71
2021/12/07 10:08:07;;;;;;;0.30;0.07;;;;;;;;;;5053071;28;20722;-70
2021/12/07 10:10:35;;;;;;;0.00;0.00;;;;;;;;;;5049252;28;20688;-71
2021/12/07 10:13:04;;;;;;;0.00;0.00;;;;;;;;;;5055044;28;20216;-71
2021/12/07 10:15:31;;;;;;;0.20;0.20;;;;;;;;;;5052319;28;20668;-71
2021/12/07 10:18:07;;;;;;;0.20;0.20;;;;;;;;;;5059508;28;20203;-71
2021/12/07 10:20:40;;;;;;;0.73;0.60;;;;;;;;;;5050749;28;20198;-71
2021/12/07 10:23:23;;;;;;;1.07;0.97;;;;;;;;;;5049229;28;20196;-71
2021/12/07 10:25:54;;;;;;;0.17;0.10;;;;;;;;;;5051209;28;20711;-72
2021/12/07 10:28:29;;;;;;;1.80;0.90;;;;;;;;;;5053861;28;20210;-70
2021/12/07 10:30:57;;;;;;;1.53;0.57;;;;;;;;;;5054817;28;20229;-74
2021/12/07 10:33:32;;;;;;;1.03;0.80;;;;;;;;;;5051830;28;20200;-74
2021/12/07 10:36:18;;;;;;;2.63;0.70;;;;;;;;;;5053568;28;20740;-72
2021/12/07 10:38:49;;;;;;;5.20;4.33;;;;;;;;;;5050366;28;20204;-69
2021/12/07 10:41:21;;;;;;;0.40;0.33;;;;;;;;;;5051524;28;20203;-71
2021/12/07 10:43:54;;;;;;;1.37;1.07;;;;;;;;;;5045244;28;20215;-72
2021/12/07 10:46:29;;;;;;;0.83;0.67;;;;;;;;;;5051395;28;20690;-72
2021/12/07 10:49:09;;;;;;;0.13;0.13;;;;;;;;;;5063571;28;20678;-71
2021/12/07 10:51:38;;;;;;;0.10;0.10;;;;;;;;;;5063787;28;20194;-72
2021/12/07 10:54:06;;;;;;;4.43;3.43;;;;;;;;;;5057563;28;20233;-72
2021/12/07 10:56:34;;;;;;;9.20;1.57;;;;;;;;;;5035795;28;20661;-72
2021/12/07 10:59:02;;;;;;;0.10;0.10;;;;;;;;;;5048966;28;20212;-72
2021/12/07 11:01:34;;;;;;;1.30;1.30;;;;;;;;;;5049358;28;20214;-71
2021/12/07 11:04:21;;;;;;;0.00;0.00;;;;;;;;;;5035884;28;20508;-71
2021/12/07 11:07:12;;;;;;;2.43;2.03;;;;;;;;;;5050273;28;20203;-71
2021/12/07 11:09:43;;;;;;;0.00;0.00;;;;;;;;;;5054912;28;20209;-71
2021/12/07 11:12:12;;;;;;;0.00;0.00;;;;;;;;;;5056124;28;20196;-71
2021/12/07 11:14:48;;;;;;;0.00;0.00;;;;;;;;;;5037108;28;20199;-71
2021/12/07 11:17:16;;;;;;;0.00;0.00;;;;;;;;;;5038602;28;20202;-71
2021/12/07 11:19:44;;;;;;;1.13;0.23;;;;;;;;;;5042632;28;20200;-71
2021/12/07 11:22:15;;;;;;;0.00;0.00;;;;;;;;;;5053046;28;20207;-72
2021/12/07 11:24:44;;;;;;;0.00;0.00;;;;;;;;;;5036932;28;20585;-72
2021/12/07 11:29:59;;;;;;;0.10;0.10;;;;;;;;;;5036254;28;20230;-72
2021/12/07 11:32:27;;;;;;;0.10;0.10;;;;;;;;;;5036758;28;20203;-73
2021/12/07 11:34:55;;;;;;;1.30;0.33;;;;;;;;;;5037521;28;20202;-72
2021/12/07 11:37:23;;;;;;;0.30;0.30;;;;;;;;;;5036351;28;21838;-71
2021/12/07 11:39:53;;;;;;;1.10;0.23;;;;;;;;;;5034631;28;20339;-72
2021/12/07 11:42:22;;;;;;;0.00;0.00;;;;;;;;;;5037946;28;20251;-72
2021/12/07 11:44:51;;;;;;;0.20;0.20;;;;;;;;;;5035730;28;20238;-73
2021/12/07 11:47:24;;;;;;;0.10;0.10;;;;;;;;;;5032777;28;20639;-71
2021/12/07 11:49:52;;;;;;;1.23;0.10;;;;;;;;;;5036683;28;20203;-71
2021/12/07 11:52:19;;;;;;;0.10;0.10;;;;;;;;;;5036796;28;20203;-72
2021/12/07 11:54:48;;;;;;;0.00;0.00;;;;;;;;;;5036506;28;20228;-71
2021/12/07 11:57:17;;;;;;;2.93;2.70;;;;;;;;;;5035485;28;20283;-72
2021/12/07 11:59:46;;;;;;;0.60;0.23;;;;;;;;;;5036159;28;20246;-71
2021/12/07 12:02:14;;;;;;;2.70;2.50;;;;;;;;;;5037027;28;20208;-71
2021/12/07 12:04:42;;;;;;;1.23;1.13;;;;;;;;;;5039029;28;20600;-74
2021/12/07 12:07:10;;;;;;;0.00;0.00;;;;;;;;;;5034437;28;20196;-74
2021/12/07 12:09:45;;;;;;;0.27;0.27;;;;;;;;;;5037520;28;20286;-73
2021/12/07 12:12:18;;;;;;;0.07;0.07;;;;;;;;;;5035015;28;20203;-73
2021/12/07 12:14:49;;;;;;;2.53;0.40;;;;;;;;;;5033212;28;20208;-72
2021/12/07 12:17:20;;;;;;;0.27;0.27;;;;;;;;;;5033844;28;20211;-72
2021/12/07 12:19:56;;;;;;;0.33;0.33;;;;;;;;;;5037162;28;20215;-73
2021/12/07 12:22:32;;;;;;;1.90;0.20;;;;;;;;;;5037341;28;20191;-72
2021/12/07 12:25:01;;;;;;;0.00;0.00;;;;;;;;;;5036580;28;20700;-72
2021/12/07 12:27:33;;;;;;;0.30;0.30;;;;;;;;;;5035102;28;20230;-72
2021/12/07 12:30:02;;;;;;;0.10;0.10;;;;;;;;;;5036967;28;20283;-72
2021/12/07 12:32:30;;;;;;;2.43;0.87;;;;;;;;;;5038274;28;20205;-71
2021/12/07 12:34:58;;;;;;;0.30;0.30;;;;;;;;;;5036846;28;20203;-73
2021/12/07 12:37:27;;;;;;;0.00;0.00;;;;;;;;;;5032528;28;20207;-73
2021/12/07 12:39:56;;;;;;;0.00;0.00;;;;;;;;;;5033536;28;20527;-72
2021/12/07 12:42:33;;;;;;;0.50;0.50;;;;;;;;;;5034883;28;20207;-72
2021/12/07 12:45:02;;;;;;;0.03;0.03;;;;;;;;;;5035062;28;20223;-72
2021/12/07 12:47:31;;;;;;;0.00;0.00;;;;;;;;;;5035822;28;20203;-72
2021/12/07 12:50:10;;;;;;;0.63;0.37;;;;;;;;;;5035398;28;20207;-73
2021/12/07 12:52:39;;;;;;;0.00;0.00;;;;;;;;;;5035232;28;20203;-72
2021/12/07 12:55:07;;;;;;;1.70;0.57;;;;;;;;;;5032917;28;21286;-72
2021/12/07 12:57:49;;;;;;;0.20;0.20;;;;;;;;;;5034366;28;20684;-71
2021/12/07 13:00:17;;;;;;;0.00;0.00;;;;;;;;;;5035950;28;20616;-72
2021/12/07 13:02:49;;;;;;;3.00;0.73;;;;;;;;;;5031847;28;20203;-72
2021/12/07 13:05:18;;;;;;;1.90;0.57;;;;;;;;;;5033421;28;20234;-72
2021/12/07 13:07:46;;;;;;;0.53;0.53;;;;;;;;;;5035559;28;20660;-72
2021/12/07 13:10:14;;;;;;;0.10;0.10;;;;;;;;;;5034607;28;20208;-73
2021/12/07 13:12:44;;;;;;;0.30;0.20;;;;;;;;;;5032181;28;20214;-72
2021/12/07 13:15:16;;;;;;;0.00;0.00;;;;;;;;;;5032014;28;20657;-74
2021/12/07 13:17:44;;;;;;;0.00;0.00;;;;;;;;;;5037701;28;20931;-72
2021/12/07 13:20:19;;;;;;;0.07;0.07;;;;;;;;;;5033657;28;20211;-73
2021/12/07 13:22:48;;;;;;;0.00;0.00;;;;;;;;;;5034081;28;20206;-74
2021/12/07 13:25:17;;;;;;;0.00;0.00;;;;;;;;;;5036251;28;20220;-73
2021/12/07 13:28:10;;;;;;;0.30;0.30;;;;;;;;;;5033733;28;20196;-73
2021/12/07 13:30:39;;;;;;;0.03;0.03;;;;;;;;;;5035043;28;20295;-73
2021/12/07 13:33:06;;;;;;;0.37;0.37;;;;;;;;;;5033125;28;20207;-73
2021/12/07 13:35:34;;;;;;;0.00;0.00;;;;;;;;;;5034601;28;20324;-72
2021/12/07 13:38:15;;;;;;;0.10;0.10;;;;;;;;;;5035971;28;20546;-72
2021/12/07 13:40:43;;;;;;;1.00;0.80;;;;;;;;;;5038322;28;20214;-72
2021/12/07 13:43:29;;;;;;;0.37;0.37;;;;;;;;;;5036410;28;20287;-72
2021/12/07 13:46:08;;;;;;;0.60;0.60;;;;;;;;;;5038235;28;20239;-72
2021/12/07 13:48:35;;;;;;;0.00;0.00;;;;;;;;;;5035132;28;20198;-72
2021/12/07 13:51:03;;;;;;;0.47;0.47;;;;;;;;;;5039150;28;20687;-72
2021/12/07 13:53:30;;;;;;;0.93;0.93;;;;;;;;;;5034540;28;20188;-73
2021/12/07 13:55:58;;;;;;;0.20;0.20;;;;;;;;;;5038016;28;20196;-72
2021/12/07 13:58:31;;;;;;;0.30;0.20;;;;;;;;;;5039440;28;20199;-73
2021/12/07 14:01:02;;;;;;;0.33;0.23;;;;;;;;;;5040314;28;20660;-72
2021/12/07 14:03:30;;;;;;;0.27;0.27;;;;;;;;;;5036857;28;20214;-72
2021/12/07 14:05:57;;;;;;;0.50;0.50;;;;;;;;;;5037502;28;20593;-74
2021/12/07 14:08:25;;;;;;;0.00;0.00;;;;;;;;;;5039802;28;20200;-73
2021/12/07 14:10:53;;;;;;;0.33;0.33;;;;;;;;;;5040384;28;20309;-74
2021/12/07 14:13:21;;;;;;;3.57;1.27;;;;;;;;;;5035366;28;20211;-73
2021/12/07 14:15:51;;;;;;;0.47;0.47;;;;;;;;;;5036045;28;21435;-73
2021/12/07 14:18:19;;;;;;;0.10;0.10;;;;;;;;;;5040426;28;20217;-73
2021/12/07 14:20:48;;;;;;;0.00;0.00;;;;;;;;;;5036406;28;20210;-73
2021/12/07 14:23:17;;;;;;;0.00;0.00;;;;;;;;;;5036738;28;20607;-73
2021/12/07 14:25:52;;;;;;;1.17;1.10;;;;;;;;;;5037046;28;20232;-73
2021/12/07 14:28:24;;;;;;;0.40;0.40;;;;;;;;;;5036866;28;20211;-73
2021/12/07 14:30:53;;;;;;;0.20;0.20;;;;;;;;;;5035846;28;21746;-72
2021/12/07 14:33:20;;;;;;;0.33;0.33;;;;;;;;;;5039369;28;20202;-72
2021/12/07 14:35:48;;;;;;;0.60;0.60;;;;;;;;;;5038261;28;20199;-72
2021/12/07 14:38:15;;;;;;;0.37;0.37;;;;;;;;;;5036520;28;20679;-73
2021/12/07 14:40:44;;;;;;;0.20;0.20;;;;;;;;;;5039723;28;20215;-73
2021/12/07 14:43:12;;;;;;;0.87;0.20;;;;;;;;;;5036750;28;20214;-72
2021/12/07 14:45:39;;;;;;;0.67;0.67;;;;;;;;;;5036897;28;20266;-73
2021/12/07 14:48:08;;;;;;;0.47;0.47;;;;;;;;;;5037044;28;20213;-73
2021/12/07 14:50:36;;;;;;;1.60;0.60;;;;;;;;;;5035160;28;20200;-73
2021/12/07 14:53:04;;;;;;;28.40;0.93;;;;;;;;;;5040049;28;20207;-72
2021/12/07 14:55:32;;;;;;;0.63;0.63;;;;;;;;;;5038200;28;20239;-73
2021/12/07 14:57:59;;;;;;;1.60;0.50;;;;;;;;;;5037923;28;20199;-72
2021/12/07 15:00:26;;;;;;;0.33;0.33;;;;;;;;;;5037594;28;20741;-72
2021/12/07 15:02:54;;;;;;;0.10;0.10;;;;;;;;;;5031248;28;20291;-73
2021/12/07 15:05:23;;;;;;;0.30;0.30;;;;;;;;;;5035427;28;20576;-72
2021/12/07 15:07:54;;;;;;;0.70;0.50;;;;;;;;;;5035130;28;20203;-73
2021/12/07 15:10:21;;;;;;;0.10;0.10;;;;;;;;;;5037144;28;20306;-71
2021/12/07 15:12:49;;;;;;;0.20;0.13;;;;;;;;;;5034278;28;20211;-73
2021/12/07 15:15:18;;;;;;;0.30;0.20;;;;;;;;;;5036878;28;20246;-73
2021/12/07 15:17:45;;;;;;;0.10;0.10;;;;;;;;;;5039372;28;20200;-72
2021/12/07 15:20:14;;;;;;;1.07;0.60;;;;;;;;;;5035050;28;20214;-72
2021/12/07 15:22:45;;;;;;;0.63;0.23;;;;;;;;;;5068415;28;20225;-73
2021/12/07 15:25:14;;;;;;;0.97;0.93;;;;;;;;;;5058130;28;20285;-71
2021/12/07 15:27:49;;;;;;;1.23;0.77;;;;;;;;;;5049849;28;20261;-75
2021/12/07 15:30:18;;;;;;;0.00;0.00;;;;;;;;;;5052223;28;20203;-73
2021/12/07 15:32:47;;;;;;;1.13;0.60;;;;;;;;;;5046194;28;20586;-72
2021/12/07 15:35:21;;;;;;;0.20;0.20;;;;;;;;;;5039858;28;20200;-73
2021/12/07 15:37:49;;;;;;;0.20;0.20;;;;;;;;;;5046022;28;20233;-72
2021/12/07 15:40:17;;;;;;;0.40;0.40;;;;;;;;;;5051239;28;20207;-72
2021/12/07 15:42:44;;;;;;;0.50;0.50;;;;;;;;;;5060177;28;20203;-77
2021/12/07 15:45:13;;;;;;;0.30;0.30;;;;;;;;;;5051424;28;20204;-75
2021/12/07 15:47:42;;;;;;;0.00;0.00;;;;;;;;;;5049485;28;20204;-76
2021/12/07 15:50:11;;;;;;;0.30;0.30;;;;;;;;;;5049192;28;20203;-74
2021/12/07 15:52:39;;;;;;;0.10;0.10;;;;;;;;;;5047903;28;20219;-75
2021/12/07 15:55:11;;;;;;;2.53;0.67;;;;;;;;;;5051350;28;20634;-73
2021/12/07 15:57:43;;;;;;;0.43;0.40;;;;;;;;;;5049834;28;20235;-74
2021/12/07 16:00:15;;;;;;;0.37;0.10;;;;;;;;;;5056299;28;20207;-71
2021/12/07 16:02:51;;;;;;;0.20;0.20;;;;;;;;;;5070047;28;20203;-75
2021/12/07 16:05:18;;;;;;;1.23;0.67;;;;;;;;;;5037676;28;20235;-70
2021/12/07 16:07:47;;;;;;;1.47;0.87;;;;;;;;;;5051824;28;20202;-71
2021/12/07 16:10:17;;;;;;;0.57;0.57;;;;;;;;;;5055188;28;20200;-71
2021/12/07 16:12:44;;;;;;;27.70;17.13;;;;;;;;;;5051866;28;20199;-70
2021/12/07 16:15:14;;;;;;;4.40;4.00;;;;;;;;;;5046899;28;20875;-71
2021/12/07 16:17:42;;;;;;;3.30;1.10;;;;;;;;;;5044906;28;20235;-71
2021/12/07 16:20:10;;;;;;;0.03;0.03;;;;;;;;;;5058284;28;20569;-71
2021/12/07 16:22:38;;;;;;;0.30;0.03;;;;;;;;;;5045065;28;20196;-70
2021/12/07 16:25:06;;;;;;;0.00;0.00;;;;;;;;;;5046345;28;20212;-71
2021/12/07 16:27:35;;;;;;;0.40;0.40;;;;;;;;;;5039913;28;20234;-70
2021/12/07 16:30:03;;;;;;;1.17;1.07;;;;;;;;;;5033805;28;20203;-71
2021/12/07 16:32:30;;;;;;;0.00;0.00;;;;;;;;;;5032649;28;20203;-77
2021/12/07 16:34:58;;;;;;;1.63;1.13;;;;;;;;;;5036593;28;20210;-72
2021/12/07 16:37:25;;;;;;;0.23;0.23;;;;;;;;;;5032370;28;20242;-71
2021/12/07 16:39:54;;;;;;;0.37;0.37;;;;;;;;;;5036505;28;20290;-73
2021/12/07 16:42:22;;;;;;;0.80;0.50;;;;;;;;;;5039229;28;20231;-70
2021/12/07 16:44:51;;;;;;;1.33;1.23;;;;;;;;;;5035735;28;20203;-74
2021/12/07 16:47:19;;;;;;;1.63;1.23;;;;;;;;;;5043460;28;20205;-73
2021/12/07 16:49:48;;;;;;;0.40;0.40;;;;;;;;;;5036057;28;20204;-73
2021/12/07 16:52:16;;;;;;;0.10;0.10;;;;;;;;;;5041078;28;20278;-74
2021/12/07 16:54:43;;;;;;;0.17;0.10;;;;;;;;;;5041713;28;20239;-74
2021/12/07 16:57:11;;;;;;;0.87;0.53;;;;;;;;;;5054448;28;20223;-74
2021/12/07 16:59:39;;;;;;;0.30;0.27;;;;;;;;;;5052792;28;20202;-74
2021/12/07 17:02:09;;;;;;;1.03;1.00;;;;;;;;;;5044334;28;20235;-73
2021/12/07 17:04:37;;;;;;;4.17;1.53;;;;;;;;;;5053151;28;20310;-73
2021/12/07 17:07:06;;;;;;;0.10;0.10;;;;;;;;;;5050112;28;20238;-72
2021/12/07 17:09:34;;;;;;;1.80;1.30;;;;;;;;;;5050170;28;20192;-73
2021/12/07 17:12:01;;;;;;;1.70;1.23;;;;;;;;;;5049507;28;20200;-73
2021/12/07 17:14:31;;;;;;;0.37;0.30;;;;;;;;;;5042714;28;20200;-73
2021/12/07 17:16:59;;;;;;;0.60;0.60;;;;;;;;;;5047888;28;20227;-72
2021/12/07 17:19:28;;;;;;;0.50;0.40;;;;;;;;;;5046233;28;20668;-72
2021/12/07 17:21:55;;;;;;;0.20;0.20;;;;;;;;;;5049512;28;20206;-72
2021/12/07 17:24:22;;;;;;;0.00;0.00;;;;;;;;;;5049279;28;20192;-73
2021/12/07 17:26:50;;;;;;;0.00;0.00;;;;;;;;;;5053117;28;20664;-72
2021/12/07 17:29:17;;;;;;;0.57;0.57;;;;;;;;;;5060041;28;20208;-72
2021/12/07 17:31:45;;;;;;;0.30;0.30;;;;;;;;;;5046455;28;20678;-72
2021/12/07 17:34:13;;;;;;;3.03;0.63;;;;;;;;;;5042637;28;20614;-72
2021/12/07 17:36:42;;;;;;;1.13;0.50;;;;;;;;;;5037663;28;20234;-73
2021/12/07 17:39:15;;;;;;;0.10;0.10;;;;;;;;;;5038629;28;20195;-72
2021/12/07 17:41:44;;;;;;;1.80;1.30;;;;;;;;;;5039074;28;20208;-73
2021/12/07 17:44:12;;;;;;;0.10;0.10;;;;;;;;;;5037980;28;20199;-74
2021/12/07 17:46:40;;;;;;;1.73;1.37;;;;;;;;;;5039841;28;20228;-73